Plato — 8PRX — position and weather

sailwx.info

Track history (hours):
 
Tides and Currents Weather Stations Pressure Air Temp Water Temp Dewpoint Dewpoint Depression Visibility Wind Speed Wind Dir Waves Ship Positions

Plato

Last reported at 2018-Apr-20 10:24 UTC. Time now 2018-Apr-20 10:52 UTC.
Position N 50°10' W 002°02'.

Length 89 m; draft 5.1 m.

Type: Cargo ship. MMSI: 314189000.

Date/timePositionNaut miles runAvg speedWind from/ knotsBaromVisibWave heightAir tempDewpointWater temp
2018-Apr-20 10:24N 50°10' W 002°02'2 5.8
2018-Apr-20 09:59N 50°10' W 001°58'3 6.2
2018-Apr-20 09:27N 50°11' W 001°53'3 6.8
2018-Apr-20 09:01N 50°12' W 001°48'4 7.6
2018-Apr-20 08:30N 50°13' W 001°43'4 8.5
2018-Apr-20 08:00N 50°14' W 001°36'5 9.5
2018-Apr-20 07:30N 50°16' W 001°29'610.4
2018-Apr-20 06:58N 50°17' W 001°21'611.5
2018-Apr-20 06:28N 50°19' W 001°12'712.4
2018-Apr-20 05:54N 50°21' W 001°02'513.0
2018-Apr-20 05:30N 50°23' W 000°54'612.6
2018-Apr-20 05:00N 50°25' W 000°45'1512.0
2018-Apr-20 03:43N 50°28' W 000°21'311.2
2018-Apr-20 03:30N 50°29' W 000°17'510.8
2018-Apr-20 03:00N 50°30' W 000°09'510.4
2018-Apr-20 02:30N 50°32' W 000°02'5 9.7
2018-Apr-20 02:00N 50°33' E 000°06'5 9.2
2018-Apr-20 01:30N 50°35' E 000°13'5 8.7
2018-Apr-20 00:59N 50°36' E 000°20'4 8.1
2018-Apr-20 00:30N 50°37' E 000°25'4 7.8
2018-Apr-20 00:00N 50°38' E 000°31'4 7.7
2018-Apr-19 23:31N 50°39' E 000°37'4 8.0
2018-Apr-19 23:01N 50°42' E 000°42'4 8.6
2018-Apr-19 22:30N 50°44' E 000°47'5 9.5
2018-Apr-19 22:01N 50°47' E 000°54'510.3
2018-Apr-19 21:31N 50°50' E 001°00'1811.6
2018-Apr-19 19:56N 51°02' E 001°23'511.6
2018-Apr-19 19:31N 51°05' E 001°29'510.7
2018-Apr-19 19:00N 51°08' E 001°35'5 9.6
2018-Apr-19 18:31N 51°11' E 001°41'5 9.1
2018-Apr-19 18:01N 51°15' E 001°46'4 8.6
2018-Apr-19 17:31N 51°18' E 001°50'4 8.1
2018-Apr-19 17:00N 51°22' E 001°53'4 8.0
2018-Apr-19 16:30N 51°25' E 001°57'4 7.6
2018-Apr-19 16:00N 51°28' E 002°01'4 7.4
2018-Apr-19 15:29N 51°31' E 002°04'4 7.5
2018-Apr-19 14:58N 51°34' E 002°09'4 7.8
2018-Apr-19 14:27N 51°37' E 002°13'4 8.4
2018-Apr-19 13:59N 51°39' E 002°18'88 9.9
2018-Apr-19 05:08N 52°48' E 003°47'3 8.0
2018-Apr-19 04:47N 52°50' E 003°50'4 8.1
2018-Apr-19 04:18N 52°53' E 003°54'3 8.4
2018-Apr-19 03:56N 52°56' E 003°58'4 8.8
2018-Apr-19 03:26N 52°59' E 004°03'5 9.6
2018-Apr-19 02:57N 53°02' E 004°09'510.1
2018-Apr-19 02:28N 53°05' E 004°15'510.4
2018-Apr-19 01:59N 53°08' E 004°21'510.3
2018-Apr-19 01:29N 53°12' E 004°27'510.6
2018-Apr-19 01:00N 53°17' E 004°30'14 9.9
2018-Apr-18 23:34N 53°29' E 004°43'110.0
2018-Apr-18 23:29N 53°29' E 004°45'5 9.8
2018-Apr-18 22:57N 53°31' E 004°53'121 9.4
2018-Apr-18 10:07N 54°00' E 008°10'1 7.9
2018-Apr-18 09:57N 54°00' E 008°13'3 7.0
2018-Apr-18 09:29N 53°60' E 008°18'4 8.4
2018-Apr-18 09:00N 53°59' E 008°25'5 9.5
2018-Apr-18 08:30N 53°58' E 008°33'611.3
2018-Apr-18 08:00N 53°55' E 008°41'613.0
2018-Apr-18 07:30N 53°51' E 008°49'713.4
2018-Apr-18 07:00N 53°51' E 008°60'611.3
2018-Apr-18 06:30N 53°54' E 009°09'0 0.5
2018-Apr-18 06:00N 53°54' E 009°09'3 6.3
2018-Apr-18 05:30N 53°56' E 009°13'4 8.5
2018-Apr-18 05:00N 53°59' E 009°17'4 7.7
2018-Apr-18 04:30N 54°03' E 009°18'4 8.3
2018-Apr-18 03:59N 54°07' E 009°20'4 8.0
2018-Apr-18 03:31N 54°10' E 009°25'4 8.5
2018-Apr-18 03:01N 54°11' E 009°31'4 8.2
2018-Apr-18 02:31N 54°14' E 009°36'4 7.5
2018-Apr-18 02:01N 54°17' E 009°40'4 7.1
2018-Apr-18 01:31N 54°20' E 009°44'36 5.6
2018-Apr-17 19:01N 54°35' E 010°41'5 9.9
2018-Apr-17 18:30N 54°35' E 010°50'5 9.7
2018-Apr-17 18:00N 54°36' E 010°58'5 9.8
2018-Apr-17 17:31N 54°36' E 011°06'5 9.4
2018-Apr-17 17:00N 54°36' E 011°14'5 9.9
2018-Apr-17 16:31N 54°33' E 011°22'5 9.3
2018-Apr-17 16:00N 54°30' E 011°28'26 9.9
2018-Apr-17 13:25N 54°05' E 011°27'3 8.4
2018-Apr-17 13:01N 54°02' E 011°24'4 7.6
2018-Apr-17 12:30N 53°59' E 011°20'5 9.2
2018-Apr-17 12:01N 53°55' E 011°26'2 2.9
2018-Apr-17 11:29N 53°54' E 011°28'0 0.0
2018-Apr-17 10:59N 53°54' E 011°28'0 0.0
2018-Apr-17 10:29N 53°54' E 011°28'0 0.0
2018-Apr-17 09:59N 53°54' E 011°28'0 0.0
2018-Apr-17 09:29N 53°54' E 011°28'0 0.0
2018-Apr-17 08:59N 53°54' E 011°28'0 0.0
2018-Apr-17 08:29N 53°54' E 011°28'0 0.0
2018-Apr-17 07:59N 53°54' E 011°28'0 0.0
2018-Apr-17 07:29N 53°54' E 011°28'0 0.0
2018-Apr-17 06:59N 53°54' E 011°28'0 0.0
2018-Apr-17 06:29N 53°54' E 011°28'0 0.0
2018-Apr-17 05:59N 53°54' E 011°28'0 0.0
2018-Apr-17 05:29N 53°54' E 011°28'0 0.0
2018-Apr-17 04:59N 53°54' E 011°28'0 0.0
2018-Apr-17 04:29N 53°54' E 011°28'0 0.0
2018-Apr-17 03:59N 53°54' E 011°28'0 0.0
2018-Apr-17 03:26N 53°54' E 011°28'0 0.0
2018-Apr-17 02:53N 53°54' E 011°28'0 0.0
2018-Apr-17 02:29N 53°54' E 011°28'0 0.0
2018-Apr-17 01:59N 53°54' E 011°28'0 0.0
2018-Apr-17 01:29N 53°54' E 011°28'0 0.0
2018-Apr-17 00:59N 53°54' E 011°28'0 0.0
2018-Apr-17 00:23N 53°54' E 011°28'0 0.0
2018-Apr-16 23:59N 53°54' E 011°28'0 0.0
2018-Apr-16 23:29N 53°54' E 011°28'0 0.0
2018-Apr-16 22:59N 53°54' E 011°28'0 0.0
2018-Apr-16 22:29N 53°54' E 011°28'0 0.0
2018-Apr-16 21:59N 53°54' E 011°28'0 0.0
2018-Apr-16 21:29N 53°54' E 011°28'0 0.0
2018-Apr-16 20:59N 53°54' E 011°28'0 0.0
2018-Apr-16 20:29N 53°54' E 011°28'0 0.0
2018-Apr-16 19:59N 53°54' E 011°28'0 0.0
2018-Apr-16 19:29N 53°54' E 011°28'0 0.0
2018-Apr-16 18:59N 53°54' E 011°28'0 0.0
2018-Apr-16 18:29N 53°54' E 011°28'0 0.0
2018-Apr-16 17:59N 53°54' E 011°28'0 0.0
2018-Apr-16 17:29N 53°54' E 011°28'0 0.0
2018-Apr-16 16:59N 53°54' E 011°28'0 0.0
2018-Apr-16 16:29N 53°54' E 011°28'0 0.0
2018-Apr-16 15:56N 53°54' E 011°28'0 0.0
2018-Apr-16 15:29N 53°54' E 011°28'0 0.0
2018-Apr-16 14:59N 53°54' E 011°28'0 0.0
2018-Apr-16 14:29N 53°54' E 011°28'0 0.0
2018-Apr-16 13:59N 53°54' E 011°28'0 0.0
2018-Apr-16 13:29N 53°54' E 011°28'0 0.0
2018-Apr-16 12:59N 53°54' E 011°28'0 0.0
2018-Apr-16 12:29N 53°54' E 011°28'0 0.0
2018-Apr-16 11:59N 53°54' E 011°28'0 0.0
2018-Apr-16 11:29N 53°54' E 011°28'0 0.0
2018-Apr-16 10:59N 53°54' E 011°28'0 0.0
2018-Apr-16 10:29N 53°54' E 011°28'0 0.0
2018-Apr-16 09:59N 53°54' E 011°28'0 0.0
2018-Apr-16 09:29N 53°54' E 011°28'0 0.0
2018-Apr-16 08:59N 53°54' E 011°28'0 0.0
2018-Apr-16 08:29N 53°54' E 011°28'0 0.0
2018-Apr-16 07:59N 53°54' E 011°28'0 0.0
2018-Apr-16 07:29N 53°54' E 011°28'0 0.0
2018-Apr-16 06:59N 53°54' E 011°28'0 0.0
2018-Apr-16 06:29N 53°54' E 011°28'0 0.0
2018-Apr-16 05:59N 53°54' E 011°28'0 0.0
2018-Apr-16 05:30N 53°54' E 011°28'1 1.3
2018-Apr-16 05:00N 53°54' E 011°27'4 8.0
2018-Apr-16 04:31N 53°58' E 011°23'4 7.4
2018-Apr-16 04:01N 54°01' E 011°22'5 7.0
2018-Apr-16 03:15N 54°06' E 011°26'2 8.2
2018-Apr-16 03:00N 54°08' E 011°26'22 8.0
2018-Apr-16 00:14N 54°31' E 011°23'2 7.7
2018-Apr-16 00:00N 54°32' E 011°20'4 8.1
2018-Apr-15 23:30N 54°33' E 011°14'4 7.6
2018-Apr-15 23:01N 54°35' E 011°08'4 7.7
2018-Apr-15 22:30N 54°35' E 011°01'4 7.9
2018-Apr-15 22:00N 54°34' E 010°55'4 8.1
2018-Apr-15 21:31N 54°34' E 010°48'37 6.5
2018-Apr-15 15:49N 54°22' E 009°47'3 8.5
2018-Apr-15 15:31N 54°20' E 009°44'4 7.7
2018-Apr-15 15:00N 54°17' E 009°39'2 4.7
2018-Apr-15 14:30N 54°15' E 009°37'3 5.6
2018-Apr-15 14:01N 54°13' E 009°35'4 8.4
2018-Apr-15 13:30N 54°11' E 009°28'4 8.2
2018-Apr-15 13:01N 54°09' E 009°22'4 6.5
2018-Apr-15 12:26N 54°06' E 009°20'3 8.3
2018-Apr-15 12:00N 54°02' E 009°18'3 6.9
2018-Apr-15 11:30N 53°59' E 009°17'4 8.1
2018-Apr-15 11:00N 53°56' E 009°12'3 6.0
2018-Apr-15 10:30N 53°54' E 009°09'0 0.2
2018-Apr-15 10:01N 53°54' E 009°09'2 3.7
2018-Apr-15 09:30N 53°53' E 009°06'0 0.2
2018-Apr-15 09:00N 53°53' E 009°06'2 4.8
2018-Apr-15 08:30N 53°52' E 009°02'5 9.2
2018-Apr-15 08:00N 53°51' E 008°55'4 8.4
2018-Apr-15 07:30N 53°50' E 008°47'4 7.1
2018-Apr-15 07:00N 53°52' E 008°43'4 7.1
2018-Apr-15 06:30N 53°56' E 008°40'3 6.8
2018-Apr-15 06:00N 53°58' E 008°35'4 7.2
2018-Apr-15 05:30N 53°58' E 008°29'3 6.6
2018-Apr-15 05:00N 53°59' E 008°23'4 7.5
2018-Apr-15 04:30N 53°59' E 008°17'5 9.6
2018-Apr-15 04:00N 53°59' E 008°09'4 8.4
2018-Apr-15 03:29N 53°58' E 008°02'5 8.4
2018-Apr-15 02:55N 53°57' E 007°54'3 8.3
2018-Apr-15 02:30N 53°56' E 007°48'89 8.8
2018-Apr-14 16:25N 53°33' E 005°23'610.8
2018-Apr-14 15:51N 53°31' E 005°14'410.6
2018-Apr-14 15:30N 53°29' E 005°08'510.2
2018-Apr-14 15:00N 53°28' E 004°60'107 8.5
2018-Apr-14 02:24N 51°58' E 003°23'1310.4
2018-Apr-14 01:07N 51°45' E 003°16'1 9.8
2018-Apr-14 00:59N 51°44' E 003°16'5 9.9
2018-Apr-14 00:26N 51°39' E 003°20'4 9.6
2018-Apr-13 23:59N 51°35' E 003°24'510.0
2018-Apr-13 23:30N 51°31' E 003°27'4 8.6
2018-Apr-13 22:59N 51°27' E 003°31'3 6.5
2018-Apr-13 22:30N 51°26' E 003°36'3 6.6
2018-Apr-13 22:00N 51°26' E 003°41'4 7.9
2018-Apr-13 21:30N 51°23' E 003°44'4 8.3
2018-Apr-13 21:01N 51°21' E 003°50'4 8.2
2018-Apr-13 20:30N 51°23' E 003°56'4 8.6
2018-Apr-13 20:00N 51°26' E 003°60'4 8.8
2018-Apr-13 19:30N 51°23' E 004°03'5 9.9
2018-Apr-13 19:00N 51°24' E 004°11'5 9.9
2018-Apr-13 18:30N 51°20' E 004°16'8 8.4
2018-Apr-13 17:30N 51°13' E 004°23'510.6
2018-Apr-13 16:59N 51°08' E 004°20'1 2.8
2018-Apr-13 16:28N 51°07' E 004°18'3 0.2
2018-Apr-13 00:56N 51°04' E 004°22'3 3.8
2018-Apr-13 00:12N 51°06' E 004°18'1 3.3
2018-Apr-12 23:56N 51°07' E 004°18'2 3.3
2018-Apr-12 23:26N 51°08' E 004°20'4 9.3
2018-Apr-12 23:01N 51°12' E 004°22'2 5.0
2018-Apr-12 22:30N 51°15' E 004°20'4 8.1
2018-Apr-12 22:00N 51°18' E 004°17'610.3
2018-Apr-12 21:27N 51°23' E 004°13'4 9.4
2018-Apr-12 21:00N 51°22' E 004°06'510.2
2018-Apr-12 20:30N 51°26' E 004°01'510.0
2018-Apr-12 20:00N 51°22' E 003°55'510.3
2018-Apr-12 19:30N 51°21' E 003°47'510.5
2018-Apr-12 19:00N 51°24' E 003°41'5 9.9
2018-Apr-12 18:30N 51°26' E 003°34'711.5
2018-Apr-12 17:56N 51°31' E 003°26'511.0
2018-Apr-12 17:29N 51°36' E 003°22'  
Track history (hours):
 
Tides and Currents Weather Stations Pressure Air Temp Water Temp Dewpoint Dewpoint Depression Visibility Wind Speed Wind Dir Waves Ship Positions

Plato

Last reported at 2018-Apr-20 10:24 UTC. Time now 2018-Apr-20 10:52 UTC.
Position N 50°10' W 002°02'.

Length 89 m; draft 5.1 m.

Type: Cargo ship. MMSI: 314189000.

Date/timePositionNaut miles runAvg speedWind from/ knotsBaromVisibWave heightAir tempDewpointWater temp
2018-Apr-20 10:24N 50°10' W 002°02'2 5.8
2018-Apr-20 09:59N 50°10' W 001°58'3 6.2
2018-Apr-20 09:27N 50°11' W 001°53'3 6.8
2018-Apr-20 09:01N 50°12' W 001°48'4 7.6
2018-Apr-20 08:30N 50°13' W 001°43'4 8.5
2018-Apr-20 08:00N 50°14' W 001°36'5 9.5
2018-Apr-20 07:30N 50°16' W 001°29'610.4
2018-Apr-20 06:58N 50°17' W 001°21'611.5
2018-Apr-20 06:28N 50°19' W 001°12'712.4
2018-Apr-20 05:54N 50°21' W 001°02'513.0
2018-Apr-20 05:30N 50°23' W 000°54'612.6
2018-Apr-20 05:00N 50°25' W 000°45'1512.0
2018-Apr-20 03:43N 50°28' W 000°21'311.2
2018-Apr-20 03:30N 50°29' W 000°17'510.8
2018-Apr-20 03:00N 50°30' W 000°09'510.4
2018-Apr-20 02:30N 50°32' W 000°02'5 9.7
2018-Apr-20 02:00N 50°33' E 000°06'5 9.2
2018-Apr-20 01:30N 50°35' E 000°13'5 8.7
2018-Apr-20 00:59N 50°36' E 000°20'4 8.1
2018-Apr-20 00:30N 50°37' E 000°25'4 7.8
2018-Apr-20 00:00N 50°38' E 000°31'4 7.7
2018-Apr-19 23:31N 50°39' E 000°37'4 8.0
2018-Apr-19 23:01N 50°42' E 000°42'4 8.6
2018-Apr-19 22:30N 50°44' E 000°47'5 9.5
2018-Apr-19 22:01N 50°47' E 000°54'510.3
2018-Apr-19 21:31N 50°50' E 001°00'1811.6
2018-Apr-19 19:56N 51°02' E 001°23'511.6
2018-Apr-19 19:31N 51°05' E 001°29'510.7
2018-Apr-19 19:00N 51°08' E 001°35'5 9.6
2018-Apr-19 18:31N 51°11' E 001°41'5 9.1
2018-Apr-19 18:01N 51°15' E 001°46'4 8.6
2018-Apr-19 17:31N 51°18' E 001°50'4 8.1
2018-Apr-19 17:00N 51°22' E 001°53'4 8.0
2018-Apr-19 16:30N 51°25' E 001°57'4 7.6
2018-Apr-19 16:00N 51°28' E 002°01'4 7.4
2018-Apr-19 15:29N 51°31' E 002°04'4 7.5
2018-Apr-19 14:58N 51°34' E 002°09'4 7.8
2018-Apr-19 14:27N 51°37' E 002°13'4 8.4
2018-Apr-19 13:59N 51°39' E 002°18'88 9.9
2018-Apr-19 05:08N 52°48' E 003°47'3 8.0
2018-Apr-19 04:47N 52°50' E 003°50'4 8.1
2018-Apr-19 04:18N 52°53' E 003°54'3 8.4
2018-Apr-19 03:56N 52°56' E 003°58'4 8.8
2018-Apr-19 03:26N 52°59' E 004°03'5 9.6
2018-Apr-19 02:57N 53°02' E 004°09'510.1
2018-Apr-19 02:28N 53°05' E 004°15'510.4
2018-Apr-19 01:59N 53°08' E 004°21'510.3
2018-Apr-19 01:29N 53°12' E 004°27'510.6
2018-Apr-19 01:00N 53°17' E 004°30'14 9.9
2018-Apr-18 23:34N 53°29' E 004°43'110.0
2018-Apr-18 23:29N 53°29' E 004°45'5 9.8
2018-Apr-18 22:57N 53°31' E 004°53'121 9.4
2018-Apr-18 10:07N 54°00' E 008°10'1 7.9
2018-Apr-18 09:57N 54°00' E 008°13'3 7.0
2018-Apr-18 09:29N 53°60' E 008°18'4 8.4
2018-Apr-18 09:00N 53°59' E 008°25'5 9.5
2018-Apr-18 08:30N 53°58' E 008°33'611.3
2018-Apr-18 08:00N 53°55' E 008°41'613.0
2018-Apr-18 07:30N 53°51' E 008°49'713.4
2018-Apr-18 07:00N 53°51' E 008°60'611.3
2018-Apr-18 06:30N 53°54' E 009°09'0 0.5
2018-Apr-18 06:00N 53°54' E 009°09'3 6.3
2018-Apr-18 05:30N 53°56' E 009°13'4 8.5
2018-Apr-18 05:00N 53°59' E 009°17'4 7.7
2018-Apr-18 04:30N 54°03' E 009°18'4 8.3
2018-Apr-18 03:59N 54°07' E 009°20'4 8.0
2018-Apr-18 03:31N 54°10' E 009°25'4 8.5
2018-Apr-18 03:01N 54°11' E 009°31'4 8.2
2018-Apr-18 02:31N 54°14' E 009°36'4 7.5
2018-Apr-18 02:01N 54°17' E 009°40'4 7.1
2018-Apr-18 01:31N 54°20' E 009°44'36 5.6
2018-Apr-17 19:01N 54°35' E 010°41'5 9.9
2018-Apr-17 18:30N 54°35' E 010°50'5 9.7
2018-Apr-17 18:00N 54°36' E 010°58'5 9.8
2018-Apr-17 17:31N 54°36' E 011°06'5 9.4
2018-Apr-17 17:00N 54°36' E 011°14'5 9.9
2018-Apr-17 16:31N 54°33' E 011°22'5 9.3
2018-Apr-17 16:00N 54°30' E 011°28'26 9.9
2018-Apr-17 13:25N 54°05' E 011°27'3 8.4
2018-Apr-17 13:01N 54°02' E 011°24'4 7.6
2018-Apr-17 12:30N 53°59' E 011°20'5 9.2
2018-Apr-17 12:01N 53°55' E 011°26'2 2.9
2018-Apr-17 11:29N 53°54' E 011°28'0 0.0
2018-Apr-17 10:59N 53°54' E 011°28'0 0.0
2018-Apr-17 10:29N 53°54' E 011°28'0 0.0
2018-Apr-17 09:59N 53°54' E 011°28'0 0.0
2018-Apr-17 09:29N 53°54' E 011°28'0 0.0
2018-Apr-17 08:59N 53°54' E 011°28'0 0.0
2018-Apr-17 08:29N 53°54' E 011°28'0 0.0
2018-Apr-17 07:59N 53°54' E 011°28'0 0.0
2018-Apr-17 07:29N 53°54' E 011°28'0 0.0
2018-Apr-17 06:59N 53°54' E 011°28'0 0.0
2018-Apr-17 06:29N 53°54' E 011°28'0 0.0
2018-Apr-17 05:59N 53°54' E 011°28'0 0.0
2018-Apr-17 05:29N 53°54' E 011°28'0 0.0
2018-Apr-17 04:59N 53°54' E 011°28'0 0.0
2018-Apr-17 04:29N 53°54' E 011°28'0 0.0
2018-Apr-17 03:59N 53°54' E 011°28'0 0.0
2018-Apr-17 03:26N 53°54' E 011°28'0 0.0
2018-Apr-17 02:53N 53°54' E 011°28'0 0.0
2018-Apr-17 02:29N 53°54' E 011°28'0 0.0
2018-Apr-17 01:59N 53°54' E 011°28'0 0.0
2018-Apr-17 01:29N 53°54' E 011°28'0 0.0
2018-Apr-17 00:59N 53°54' E 011°28'0 0.0
2018-Apr-17 00:23N 53°54' E 011°28'0 0.0
2018-Apr-16 23:59N 53°54' E 011°28'0 0.0
2018-Apr-16 23:29N 53°54' E 011°28'0 0.0
2018-Apr-16 22:59N 53°54' E 011°28'0 0.0
2018-Apr-16 22:29N 53°54' E 011°28'0 0.0
2018-Apr-16 21:59N 53°54' E 011°28'0 0.0
2018-Apr-16 21:29N 53°54' E 011°28'0 0.0
2018-Apr-16 20:59N 53°54' E 011°28'0 0.0
2018-Apr-16 20:29N 53°54' E 011°28'0 0.0
2018-Apr-16 19:59N 53°54' E 011°28'0 0.0
2018-Apr-16 19:29N 53°54' E 011°28'0 0.0
2018-Apr-16 18:59N 53°54' E 011°28'0 0.0
2018-Apr-16 18:29N 53°54' E 011°28'0 0.0
2018-Apr-16 17:59N 53°54' E 011°28'0 0.0
2018-Apr-16 17:29N 53°54' E 011°28'0 0.0
2018-Apr-16 16:59N 53°54' E 011°28'0 0.0
2018-Apr-16 16:29N 53°54' E 011°28'0 0.0
2018-Apr-16 15:56N 53°54' E 011°28'0 0.0
2018-Apr-16 15:29N 53°54' E 011°28'0 0.0
2018-Apr-16 14:59N 53°54' E 011°28'0 0.0
2018-Apr-16 14:29N 53°54' E 011°28'0 0.0
2018-Apr-16 13:59N 53°54' E 011°28'0 0.0
2018-Apr-16 13:29N 53°54' E 011°28'0 0.0
2018-Apr-16 12:59N 53°54' E 011°28'0 0.0
2018-Apr-16 12:29N 53°54' E 011°28'0 0.0
2018-Apr-16 11:59N 53°54' E 011°28'0 0.0
2018-Apr-16 11:29N 53°54' E 011°28'0 0.0
2018-Apr-16 10:59N 53°54' E 011°28'0 0.0
2018-Apr-16 10:29N 53°54' E 011°28'0 0.0
2018-Apr-16 09:59N 53°54' E 011°28'0 0.0
2018-Apr-16 09:29N 53°54' E 011°28'0 0.0
2018-Apr-16 08:59N 53°54' E 011°28'0 0.0
2018-Apr-16 08:29N 53°54' E 011°28'0 0.0
2018-Apr-16 07:59N 53°54' E 011°28'0 0.0
2018-Apr-16 07:29N 53°54' E 011°28'0 0.0
2018-Apr-16 06:59N 53°54' E 011°28'0 0.0
2018-Apr-16 06:29N 53°54' E 011°28'0 0.0
2018-Apr-16 05:59N 53°54' E 011°28'0 0.0
2018-Apr-16 05:30N 53°54' E 011°28'1 1.3
2018-Apr-16 05:00N 53°54' E 011°27'4 8.0
2018-Apr-16 04:31N 53°58' E 011°23'4 7.4
2018-Apr-16 04:01N 54°01' E 011°22'5 7.0
2018-Apr-16 03:15N 54°06' E 011°26'2 8.2
2018-Apr-16 03:00N 54°08' E 011°26'22 8.0
2018-Apr-16 00:14N 54°31' E 011°23'2 7.7
2018-Apr-16 00:00N 54°32' E 011°20'4 8.1
2018-Apr-15 23:30N 54°33' E 011°14'4 7.6
2018-Apr-15 23:01N 54°35' E 011°08'4 7.7
2018-Apr-15 22:30N 54°35' E 011°01'4 7.9
2018-Apr-15 22:00N 54°34' E 010°55'4 8.1
2018-Apr-15 21:31N 54°34' E 010°48'37 6.5
2018-Apr-15 15:49N 54°22' E 009°47'3 8.5
2018-Apr-15 15:31N 54°20' E 009°44'4 7.7
2018-Apr-15 15:00N 54°17' E 009°39'2 4.7
2018-Apr-15 14:30N 54°15' E 009°37'3 5.6
2018-Apr-15 14:01N 54°13' E 009°35'4 8.4
2018-Apr-15 13:30N 54°11' E 009°28'4 8.2
2018-Apr-15 13:01N 54°09' E 009°22'4 6.5
2018-Apr-15 12:26N 54°06' E 009°20'3 8.3
2018-Apr-15 12:00N 54°02' E 009°18'3 6.9
2018-Apr-15 11:30N 53°59' E 009°17'4 8.1
2018-Apr-15 11:00N 53°56' E 009°12'3 6.0
2018-Apr-15 10:30N 53°54' E 009°09'0 0.2
2018-Apr-15 10:01N 53°54' E 009°09'2 3.7
2018-Apr-15 09:30N 53°53' E 009°06'0 0.2
2018-Apr-15 09:00N 53°53' E 009°06'2 4.8
2018-Apr-15 08:30N 53°52' E 009°02'5 9.2
2018-Apr-15 08:00N 53°51' E 008°55'4 8.4
2018-Apr-15 07:30N 53°50' E 008°47'4 7.1
2018-Apr-15 07:00N 53°52' E 008°43'4 7.1
2018-Apr-15 06:30N 53°56' E 008°40'3 6.8
2018-Apr-15 06:00N 53°58' E 008°35'4 7.2
2018-Apr-15 05:30N 53°58' E 008°29'3 6.6
2018-Apr-15 05:00N 53°59' E 008°23'4 7.5
2018-Apr-15 04:30N 53°59' E 008°17'5 9.6
2018-Apr-15 04:00N 53°59' E 008°09'4 8.4
2018-Apr-15 03:29N 53°58' E 008°02'5 8.4
2018-Apr-15 02:55N 53°57' E 007°54'3 8.3
2018-Apr-15 02:30N 53°56' E 007°48'89 8.8
2018-Apr-14 16:25N 53°33' E 005°23'610.8
2018-Apr-14 15:51N 53°31' E 005°14'410.6
2018-Apr-14 15:30N 53°29' E 005°08'510.2
2018-Apr-14 15:00N 53°28' E 004°60'107 8.5
2018-Apr-14 02:24N 51°58' E 003°23'1310.4
2018-Apr-14 01:07N 51°45' E 003°16'1 9.8
2018-Apr-14 00:59N 51°44' E 003°16'5 9.9
2018-Apr-14 00:26N 51°39' E 003°20'4 9.6
2018-Apr-13 23:59N 51°35' E 003°24'510.0
2018-Apr-13 23:30N 51°31' E 003°27'4 8.6
2018-Apr-13 22:59N 51°27' E 003°31'3 6.5
2018-Apr-13 22:30N 51°26' E 003°36'3 6.6
2018-Apr-13 22:00N 51°26' E 003°41'4 7.9
2018-Apr-13 21:30N 51°23' E 003°44'4 8.3
2018-Apr-13 21:01N 51°21' E 003°50'4 8.2
2018-Apr-13 20:30N 51°23' E 003°56'4 8.6
2018-Apr-13 20:00N 51°26' E 003°60'4 8.8
2018-Apr-13 19:30N 51°23' E 004°03'5 9.9
2018-Apr-13 19:00N 51°24' E 004°11'5 9.9
2018-Apr-13 18:30N 51°20' E 004°16'8 8.4
2018-Apr-13 17:30N 51°13' E 004°23'510.6
2018-Apr-13 16:59N 51°08' E 004°20'1 2.8
2018-Apr-13 16:28N 51°07' E 004°18'3 0.2
2018-Apr-13 00:56N 51°04' E 004°22'3 3.8
2018-Apr-13 00:12N 51°06' E 004°18'1 3.3
2018-Apr-12 23:56N 51°07' E 004°18'2 3.3
2018-Apr-12 23:26N 51°08' E 004°20'4 9.3
2018-Apr-12 23:01N 51°12' E 004°22'2 5.0
2018-Apr-12 22:30N 51°15' E 004°20'4 8.1
2018-Apr-12 22:00N 51°18' E 004°17'610.3
2018-Apr-12 21:27N 51°23' E 004°13'4 9.4
2018-Apr-12 21:00N 51°22' E 004°06'510.2
2018-Apr-12 20:30N 51°26' E 004°01'510.0
2018-Apr-12 20:00N 51°22' E 003°55'510.3
2018-Apr-12 19:30N 51°21' E 003°47'510.5
2018-Apr-12 19:00N 51°24' E 003°41'5 9.9
2018-Apr-12 18:30N 51°26' E 003°34'711.5
2018-Apr-12 17:56N 51°31' E 003°26'511.0
2018-Apr-12 17:29N 51°36' E 003°22'  

Dump ship's entire track history